Time;durP1;ratioP1;P1;durP2;ratioP2;P2;SDS_P1;SDS_P2;PMS_P1;PMS_P2;Temp;Humidity;BMP_temperature;BMP_pressure;BME280_temperature;BME280_humidity;BME280_pressure;Samples;Min_cycle;Max_cycle;Signal;HPM_P1;HPM_P2
2021/08/03 00:02:02;;;;;;;4.60;2.20;;;;;;;17.82;59.74;97877.31;8315960;28;20201;-66
2021/08/03 00:06:31;;;;;;;6.47;2.33;;;;;;;17.90;59.48;97874.16;8318184;28;20229;-66
2021/08/03 00:11:15;;;;;;;3.10;1.60;;;;;;;17.84;59.39;97875.44;8348447;28;20201;-66
2021/08/03 00:15:40;;;;;;;4.83;2.00;;;;;;;17.83;59.38;97875.53;8348667;28;20236;-66
2021/08/03 00:20:10;;;;;;;5.83;2.00;;;;;;;17.73;59.32;97863.13;8349483;28;20211;-66
2021/08/03 00:24:43;;;;;;;5.53;1.97;;;;;;;17.76;59.41;97870.75;8349269;28;20200;-66
2021/08/03 00:29:15;;;;;;;4.20;2.00;;;;;;;17.71;59.58;97857.16;8348068;28;20209;-66
2021/08/03 00:33:47;;;;;;;5.07;1.87;;;;;;;17.72;59.57;97858.00;8349380;28;20303;-66
2021/08/03 00:38:04;;;;;;;3.80;2.10;;;;;;;17.68;59.65;97860.00;8351296;28;20275;-66
2021/08/03 00:42:16;;;;;;;6.17;2.33;;;;;;;17.70;59.48;97852.88;8355386;28;20200;-66
2021/08/03 00:46:59;;;;;;;4.60;2.33;;;;;;;17.69;59.39;97845.97;8355227;28;20239;-66
2021/08/03 00:51:21;;;;;;;6.20;2.20;;;;;;;17.55;59.66;97854.03;8354780;28;20201;-66
2021/08/03 00:55:51;;;;;;;5.17;2.37;;;;;;;17.46;59.79;97852.94;8350278;28;20231;-66
2021/08/03 01:00:18;;;;;;;5.07;2.40;;;;;;;17.35;60.18;97865.97;8354686;28;20267;-66
2021/08/03 01:04:45;;;;;;;5.27;2.80;;;;;;;16.52;62.83;97859.66;8323331;28;20264;-66
2021/08/03 01:09:19;;;;;;;5.97;2.67;;;;;;;16.69;62.24;97858.47;8321707;28;20393;-66
2021/08/03 01:13:56;;;;;;;7.17;2.20;;;;;;;16.79;62.26;97859.50;8321835;28;20201;-66
2021/08/03 01:18:20;;;;;;;4.87;2.23;;;;;;;17.05;61.43;97854.19;8321079;28;20236;-66
2021/08/03 01:23:23;;;;;;;8.30;2.50;;;;;;;16.44;63.44;97867.19;8321059;28;20585;-66
2021/08/03 01:28:21;;;;;;;4.63;2.67;;;;;;;16.79;62.43;97863.88;8320816;28;20229;-66
2021/08/03 01:32:43;;;;;;;6.83;2.70;;;;;;;16.97;61.86;97862.59;8321261;28;20519;-66
2021/08/03 01:37:09;;;;;;;3.33;2.70;;;;;;;16.72;62.32;97860.03;8320847;28;20205;-66
2021/08/03 01:41:25;;;;;;;4.60;2.57;;;;;;;16.70;62.72;97860.13;8320722;28;20200;-66
2021/08/03 01:46:00;;;;;;;4.10;2.30;;;;;;;16.80;62.39;97855.09;8319779;28;20414;-66
2021/08/03 01:50:31;;;;;;;9.77;2.40;;;;;;;16.97;61.23;97854.75;8320123;28;20516;-66
2021/08/03 01:55:03;;;;;;;4.17;2.50;;;;;;;16.83;61.73;97859.28;8320312;28;20235;-66
2021/08/03 01:59:40;;;;;;;6.10;2.50;;;;;;;16.97;61.15;97856.53;8318905;28;20207;-66
2021/08/03 02:04:15;;;;;;;7.70;2.60;;;;;;;16.64;62.16;97863.19;8320083;28;20201;-66
2021/08/03 02:08:50;;;;;;;4.00;2.60;;;;;;;16.44;63.34;97859.34;8319195;28;20229;-66
2021/08/03 02:13:03;;;;;;;7.50;2.50;;;;;;;16.89;61.31;97849.22;8316228;28;20228;-65
2021/08/03 02:17:27;;;;;;;9.03;2.80;;;;;;;17.05;60.79;97861.19;8319702;28;20646;-66
2021/08/03 02:21:54;;;;;;;4.20;2.47;;;;;;;17.00;61.21;97858.91;8319444;28;20378;-66
2021/08/03 02:26:24;;;;;;;6.50;2.60;;;;;;;17.03;60.77;97852.63;8319412;28;20303;-66
2021/08/03 02:31:01;;;;;;;8.53;2.60;;;;;;;16.95;60.59;97848.78;8318324;28;20201;-66
2021/08/03 02:35:24;;;;;;;6.17;2.60;;;;;;;16.93;61.10;97857.69;8319113;28;20504;-66
2021/08/03 02:40:08;;;;;;;8.60;3.03;;;;;;;16.88;60.66;97851.94;8318821;28;20212;-66
2021/08/03 02:44:27;;;;;;;5.57;2.73;;;;;;;16.66;61.53;97857.84;8319142;28;20203;-66
2021/08/03 02:49:00;;;;;;;5.60;2.90;;;;;;;16.75;61.25;97857.19;8318217;28;20235;-66
2021/08/03 02:53:32;;;;;;;7.83;2.80;;;;;;;16.77;61.20;97853.53;8318349;28;20201;-66
2021/08/03 02:57:59;;;;;;;6.57;2.70;;;;;;;16.95;60.16;97850.56;8316658;28;20302;-66
2021/08/03 03:02:28;;;;;;;8.17;3.23;;;;;;;16.71;61.19;97848.72;8316923;28;20204;-66
2021/08/03 03:06:49;;;;;;;8.23;3.13;;;;;;;16.59;61.43;97858.28;8318162;28;20252;-66
2021/08/03 03:11:23;;;;;;;5.80;3.03;;;;;;;16.48;61.80;97858.19;8317580;28;20201;-66
2021/08/03 03:15:57;;;;;;;6.00;2.90;;;;;;;16.73;60.91;97852.06;8318162;28;20413;-66
2021/08/03 03:20:20;;;;;;;6.67;2.70;;;;;;;16.71;60.91;97851.34;8317890;28;20208;-66
2021/08/03 03:24:40;;;;;;;3.80;2.50;;;;;;;16.81;60.26;97852.38;8317589;28;20228;-66
2021/08/03 03:29:16;;;;;;;6.40;2.87;;;;;;;16.75;60.75;97850.19;8317346;28;20547;-66
2021/08/03 03:33:58;;;;;;;7.77;2.83;;;;;;;16.77;60.27;97850.06;8317228;28;20359;-66
2021/08/03 03:38:19;;;;;;;6.20;2.60;;;;;;;16.65;60.76;97845.72;8316230;28;20268;-66
2021/08/03 03:42:43;;;;;;;7.27;2.60;;;;;;;16.61;60.92;97848.53;8316798;28;20271;-66
2021/08/03 03:47:03;;;;;;;7.40;2.80;;;;;;;16.53;61.31;97843.03;8317403;28;20228;-66
2021/08/03 03:51:44;;;;;;;8.90;3.10;;;;;;;16.48;61.12;97839.91;8312741;28;20370;-66
2021/08/03 03:56:04;;;;;;;10.33;3.00;;;;;;;16.51;61.04;97836.25;8316832;28;20417;-66
2021/08/03 04:00:33;;;;;;;8.50;3.10;;;;;;;16.31;61.73;97840.25;8316556;28;20235;-66
2021/08/03 04:05:01;;;;;;;3.97;2.50;;;;;;;16.60;60.52;97832.97;8316915;28;20397;-66
2021/08/03 04:09:41;;;;;;;4.60;2.63;;;;;;;16.64;60.31;97831.81;8317031;28;20239;-66
2021/08/03 04:14:22;;;;;;;5.33;2.77;;;;;;;16.58;60.83;97833.09;8321872;28;20201;-66
2021/08/03 04:18:47;;;;;;;4.30;2.60;;;;;;;16.53;60.95;97831.75;8323214;28;20260;-66
2021/08/03 04:23:06;;;;;;;7.10;2.70;;;;;;;16.38;61.47;97831.88;8320287;28;20208;-66
2021/08/03 04:27:37;;;;;;;4.90;3.20;;;;;;;16.39;61.74;97832.69;8322959;28;20228;-66
2021/08/03 04:32:07;;;;;;;5.87;2.80;;;;;;;16.33;61.52;97841.81;8320988;28;20397;-65
2021/08/03 04:36:21;;;;;;;4.83;2.90;;;;;;;16.22;62.51;97839.97;8322412;28;20268;-66
2021/08/03 04:40:55;;;;;;;3.70;2.50;;;;;;;16.46;61.77;97839.16;8321824;28;20208;-66
2021/08/03 04:45:37;;;;;;;5.17;3.30;;;;;;;16.41;61.80;97838.66;8320761;28;20486;-66
2021/08/03 04:50:07;;;;;;;3.93;2.73;;;;;;;16.35;62.02;97829.47;8322415;28;20205;-66
2021/08/03 04:54:22;;;;;;;7.60;2.70;;;;;;;16.46;61.76;97839.16;8320433;28;20236;-66
2021/08/03 04:58:41;;;;;;;6.30;2.57;;;;;;;16.46;61.89;97839.16;8321006;28;20244;-66
2021/08/03 05:03:07;;;;;;;4.13;3.30;;;;;;;16.33;62.82;97839.19;8321113;28;20511;-66
2021/08/03 05:07:29;;;;;;;7.00;2.97;;;;;;;16.13;64.53;97829.31;8321923;28;20284;-66
2021/08/03 05:11:57;;;;;;;5.10;3.10;;;;;;;16.24;64.12;97837.25;8320046;28;20216;-66
2021/08/03 05:16:21;;;;;;;5.57;3.07;;;;;;;16.64;62.98;97839.66;8320614;28;20424;-66
2021/08/03 05:20:51;;;;;;;4.83;3.17;;;;;;;16.47;63.42;97825.19;8321273;28;20201;-66
2021/08/03 05:25:12;;;;;;;5.97;3.40;;;;;;;16.27;65.24;97823.94;8320105;28;20222;-66
2021/08/03 05:29:48;;;;;;;6.53;3.73;;;;;;;16.18;65.01;97816.75;8320718;28;20232;-66
2021/08/03 05:34:23;;;;;;;7.97;3.73;;;;;;;16.34;64.95;97816.53;8319666;28;20492;-66
2021/08/03 05:38:49;;;;;;;8.47;3.53;;;;;;;16.63;64.95;97811.84;8319321;28;20237;-65
2021/08/03 05:43:19;;;;;;;5.47;3.77;;;;;;;16.83;64.57;97817.44;8317635;28;20392;-66
2021/08/03 05:47:50;;;;;;;8.63;3.50;;;;;;;16.61;65.87;97814.56;8320653;28;20405;-65
2021/08/03 05:52:02;;;;;;;5.57;3.20;;;;;;;17.05;65.00;97808.88;8306920;28;20380;-66
2021/08/03 05:56:16;;;;;;;9.40;4.00;;;;;;;16.72;65.61;97808.56;8305128;28;20582;-67
2021/08/03 06:00:23;;;;;;;7.87;3.83;;;;;;;17.21;64.49;97809.44;8303602;28;20193;-66
2021/08/03 06:04:41;;;;;;;5.27;3.40;;;;;;;17.59;63.33;97813.56;8302775;28;20198;-67
2021/08/03 06:08:55;;;;;;;10.20;2.67;;;;;;;17.63;66.95;97815.03;8304292;28;20220;-70
2021/08/03 06:13:08;;;;;;;3.83;2.27;;;;;;;18.54;62.53;97815.88;8302187;28;20201;-72
2021/08/03 06:17:23;;;;;;;6.77;3.40;;;;;;;18.37;61.70;97819.84;8302209;28;20261;-67
2021/08/03 06:21:36;;;;;;;4.40;3.27;;;;;;;18.35;62.26;97813.88;8302569;28;20200;-67
2021/08/03 06:25:48;;;;;;;5.70;3.90;;;;;;;18.60;61.37;97811.94;8302376;28;20201;-67
2021/08/03 06:30:14;;;;;;;3.90;3.20;;;;;;;18.89;60.21;97801.78;8301492;28;20315;-66
2021/08/03 06:34:32;;;;;;;5.73;3.37;;;;;;;18.49;60.48;97818.06;8301190;28;20212;-68
2021/08/03 06:38:47;;;;;;;9.10;4.00;;;;;;;18.43;60.89;97818.53;8302182;28;20205;-67
2021/08/03 06:43:01;;;;;;;4.80;3.23;;;;;;;18.75;60.28;97819.44;8318481;28;20299;-67
2021/08/03 06:47:08;;;;;;;6.13;3.30;;;;;;;18.90;59.88;97814.75;8317978;28;20235;-67
2021/08/03 06:51:15;;;;;;;5.60;2.90;;;;;;;19.23;58.42;97820.00;8318750;28;20201;-67
2021/08/03 06:55:27;;;;;;;3.63;2.30;;;;;;;19.41;56.91;97808.00;8317590;28;20389;-67
2021/08/03 06:59:37;;;;;;;9.57;2.50;;;;;;;19.64;58.89;97816.59;8318333;28;20205;-72
2021/08/03 07:03:50;;;;;;;6.47;2.10;;;;;;;19.91;58.45;97812.63;8318047;28;20201;-72
2021/08/03 07:08:00;;;;;;;6.33;2.50;;;;;;;20.13;58.01;97816.88;8318012;28;20567;-71
2021/08/03 07:12:07;;;;;;;8.47;2.37;;;;;;;20.37;57.51;97815.72;8318137;28;20268;-72
2021/08/03 07:16:15;;;;;;;3.90;2.70;;;;;;;20.59;56.96;97820.78;8308844;28;20292;-71
2021/08/03 07:20:24;;;;;;;6.93;2.73;;;;;;;20.81;56.54;97824.16;8285430;28;20410;-72
2021/08/03 07:24:29;;;;;;;11.77;2.73;;;;;;;20.84;54.71;97822.09;8285282;28;20276;-72
2021/08/03 07:28:37;;;;;;;8.03;2.73;;;;;;;20.67;55.76;97822.75;8285012;28;20634;-72
2021/08/03 07:32:44;;;;;;;6.90;2.30;;;;;;;20.77;56.31;97826.25;8290167;28;20224;-73
2021/08/03 07:36:53;;;;;;;6.23;2.87;;;;;;;20.57;55.56;97822.72;8290536;28;20268;-73
2021/08/03 07:41:04;;;;;;;8.40;2.73;;;;;;;20.70;55.78;97825.94;8284531;28;20281;-72
2021/08/03 07:45:09;;;;;;;6.80;3.20;;;;;;;21.19;54.22;97818.13;8295019;28;20292;-72
2021/08/03 07:49:13;;;;;;;5.27;2.17;;;;;;;21.56;53.37;97822.69;8300044;28;20221;-71
2021/08/03 07:53:19;;;;;;;5.37;2.77;;;;;;;21.53;52.91;97820.31;8299751;28;20205;-72
2021/08/03 07:57:25;;;;;;;5.77;2.60;;;;;;;21.50;53.59;97820.63;8297312;28;20551;-69
2021/08/03 08:01:34;;;;;;;5.50;2.70;;;;;;;21.71;52.86;97819.63;8304545;28;20203;-69
2021/08/03 08:05:37;;;;;;;6.03;2.43;;;;;;;21.57;52.84;97819.09;8317057;28;20498;-69
2021/08/03 08:09:45;;;;;;;7.10;2.40;;;;;;;21.54;53.56;97810.66;8305988;28;20317;-70
2021/08/03 08:13:48;;;;;;;3.47;2.87;;;;;;;22.01;51.40;97818.59;8284532;28;20224;-69
2021/08/03 08:17:51;;;;;;;8.73;5.60;;;;;;;22.50;50.90;97816.59;8284378;28;20245;-69
2021/08/03 08:21:54;;;;;;;24.80;13.73;;;;;;;22.99;50.10;97811.84;8284085;28;20233;-70
2021/08/03 08:26:03;;;;;;;16.40;7.70;;;;;;;22.30;51.16;97815.03;8284157;28;20212;-74
2021/08/03 08:30:09;;;;;;;17.57;8.00;;;;;;;22.35;50.64;97811.00;8284259;28;20461;-72
2021/08/03 08:34:12;;;;;;;14.43;4.63;;;;;;;22.68;50.36;97807.91;8284267;28;20213;-73
2021/08/03 08:38:15;;;;;;;5.50;2.57;;;;;;;22.27;50.09;97805.59;8283995;28;20232;-72
2021/08/03 08:42:20;;;;;;;10.13;5.43;;;;;;;22.93;49.06;97801.88;8283902;28;20208;-72
2021/08/03 08:46:23;;;;;;;7.83;2.60;;;;;;;22.40;50.40;97807.91;8344910;28;20200;-71
2021/08/03 08:50:27;;;;;;;4.57;2.20;;;;;;;22.84;48.20;97790.38;8349347;28;20227;-71
2021/08/03 08:54:32;;;;;;;6.83;2.43;;;;;;;22.92;47.42;97788.81;8349081;28;20308;-66
2021/08/03 08:58:37;;;;;;;6.10;2.43;;;;;;;23.23;47.38;97792.78;8351765;28;20208;-67
2021/08/03 09:02:41;;;;;;;6.37;2.40;;;;;;;23.06;47.13;97790.97;8338603;28;20223;-66
2021/08/03 09:07:01;;;;;;;3.10;1.90;;;;;;;23.56;45.95;97779.81;8321997;28;20209;-66
2021/08/03 09:11:08;;;;;;;4.13;1.73;;;;;;;23.24;45.44;97788.31;8322160;28;20209;-67
2021/08/03 09:15:21;;;;;;;3.60;1.87;;;;;;;23.18;46.91;97781.81;8321813;28;20236;-66
2021/08/03 09:19:32;;;;;;;5.60;1.70;;;;;;;23.16;46.23;97775.88;8321795;28;20399;-66
2021/08/03 09:23:46;;;;;;;2.53;1.30;;;;;;;23.28;44.96;97773.00;8321633;28;20208;-66
2021/08/03 09:27:49;;;;;;;2.63;1.90;;;;;;;23.34;46.48;97772.38;8299857;28;20221;-66
2021/08/03 09:31:55;;;;;;;4.03;1.53;;;;;;;23.38;46.09;97769.28;8288239;28;20206;-66
2021/08/03 09:35:58;;;;;;;3.50;1.80;;;;;;;23.41;45.81;97768.97;8288678;28;20497;-66
2021/08/03 09:40:02;;;;;;;2.37;1.70;;;;;;;23.12;45.61;97771.88;8288562;28;20215;-67
2021/08/03 09:44:13;;;;;;;3.83;1.93;;;;;;;22.98;46.10;97765.28;8288477;28;20492;-66
2021/08/03 09:48:18;;;;;;;3.07;1.63;;;;;;;23.08;46.33;97767.88;8288205;28;20233;-67
2021/08/03 09:52:22;;;;;;;2.17;1.50;;;;;;;22.94;46.96;97773.66;8288362;28;20492;-67
2021/08/03 09:56:35;;;;;;;1.50;1.40;;;;;;;22.50;46.34;97768.25;8288073;28;20229;-67
2021/08/03 10:00:39;;;;;;;2.37;1.40;;;;;;;22.57;46.37;97764.06;8288099;28;20300;-67
2021/08/03 10:04:44;;;;;;;3.00;1.60;;;;;;;22.94;46.28;97765.72;8319645;28;20208;-67
2021/08/03 10:08:48;;;;;;;3.97;1.47;;;;;;;22.89;45.50;97753.00;8319801;28;20224;-67
2021/08/03 10:12:51;;;;;;;1.93;1.23;;;;;;;22.96;45.72;97753.22;8319914;28;20368;-63
2021/08/03 10:16:54;;;;;;;5.13;1.53;;;;;;;22.74;45.86;97757.16;8319549;28;20237;-64
2021/08/03 10:20:59;;;;;;;2.80;1.60;;;;;;;22.97;45.08;97736.41;8319723;28;20205;-63
2021/08/03 10:25:04;;;;;;;2.87;1.67;;;;;;;22.80;45.22;97740.69;8319515;28;20315;-64
2021/08/03 10:29:26;;;;;;;3.00;1.80;;;;;;;22.92;45.40;97747.41;8319487;28;20423;-65
2021/08/03 10:33:41;;;;;;;3.47;1.73;;;;;;;22.40;46.58;97745.41;8319379;28;20580;-65
2021/08/03 10:38:08;;;;;;;3.97;1.40;;;;;;;22.76;45.91;97741.97;8319223;28;20208;-66
2021/08/03 10:42:12;;;;;;;2.10;1.40;;;;;;;22.93;46.10;97735.03;8319271;28;20370;-67
2021/08/03 10:46:42;;;;;;;2.80;1.60;;;;;;;22.91;47.22;97735.19;8319186;28;20205;-67
2021/08/03 10:50:46;;;;;;;2.03;1.40;;;;;;;23.03;46.37;97727.88;8278574;28;20328;-67
2021/08/03 10:54:55;;;;;;;2.40;1.40;;;;;;;22.96;46.15;97726.81;8298310;28;20225;-66
2021/08/03 10:59:33;;;;;;;2.30;1.40;;;;;;;22.84;45.99;97721.75;8343792;28;20207;-67
2021/08/03 11:03:43;;;;;;;1.83;1.60;;;;;;;22.81;45.87;97719.44;8336240;28;20193;-66
2021/08/03 11:07:51;;;;;;;2.10;1.63;;;;;;;22.42;45.84;97709.16;8318222;28;20500;-66
2021/08/03 11:12:37;;;;;;;2.17;1.40;;;;;;;22.62;46.57;97706.41;8321665;28;20495;-67
2021/08/03 11:16:50;;;;;;;2.83;1.40;;;;;;;22.97;46.56;97702.06;8350661;28;20426;-67
2021/08/03 11:21:05;;;;;;;2.50;1.40;;;;;;;23.05;45.13;97696.06;8350185;28;20270;-67
2021/08/03 11:25:18;;;;;;;2.77;1.50;;;;;;;22.82;46.10;97699.13;8350605;28;20219;-67
2021/08/03 11:29:25;;;;;;;2.30;1.43;;;;;;;22.91;45.98;97694.78;8343680;28;20225;-66
2021/08/03 11:33:28;;;;;;;4.33;1.30;;;;;;;23.39;45.39;97685.56;8317597;28;20214;-67
2021/08/03 11:37:40;;;;;;;2.70;1.30;;;;;;;23.20;45.27;97676.84;8317504;28;20383;-66
2021/08/03 11:41:46;;;;;;;3.10;1.30;;;;;;;23.25;43.99;97667.63;8317398;28;20212;-66
2021/08/03 11:45:50;;;;;;;3.33;1.43;;;;;;;23.59;42.80;97659.75;8313852;28;20204;-67
2021/08/03 11:49:55;;;;;;;2.33;1.40;;;;;;;23.96;42.62;97645.38;8317377;28;20235;-67
2021/08/03 11:54:10;;;;;;;2.97;1.30;;;;;;;24.32;43.13;97643.31;8317300;28;20227;-67
2021/08/03 11:58:18;;;;;;;1.93;1.20;;;;;;;24.20;42.09;97634.03;8316846;28;20267;-66
2021/08/03 12:02:22;;;;;;;1.30;1.20;;;;;;;23.78;42.83;97637.53;8316967;28;20219;-67
2021/08/03 12:06:27;;;;;;;1.30;1.10;;;;;;;23.45;42.22;97620.69;8316883;28;20201;-66
2021/08/03 12:10:33;;;;;;;1.93;1.17;;;;;;;23.36;43.36;97623.31;8316639;28;20515;-66
2021/08/03 12:14:38;;;;;;;1.83;1.03;;;;;;;23.01;43.96;97674.38;8316282;28;20507;-67
2021/08/03 12:18:45;;;;;;;2.03;1.30;;;;;;;21.78;51.76;97691.56;8316807;28;20501;-66
2021/08/03 12:22:50;;;;;;;8.83;1.80;;;;;;;21.41;53.51;97703.72;8316582;28;20441;-67
2021/08/03 12:27:12;;;;;;;3.50;1.17;;;;;;;20.84;54.78;97714.19;8315784;28;20216;-66
2021/08/03 12:31:19;;;;;;;3.63;1.37;;;;;;;20.69;56.33;97731.38;8316743;28;20523;-67
2021/08/03 12:35:26;;;;;;;5.27;1.20;;;;;;;20.46;56.13;97725.50;8322065;28;20208;-66
2021/08/03 12:39:41;;;;;;;7.47;2.10;;;;;;;20.30;57.82;97711.06;8323023;28;20205;-67
2021/08/03 12:43:44;;;;;;;6.27;1.40;;;;;;;20.43;56.22;97692.41;8310970;28;20308;-69
2021/08/03 12:47:54;;;;;;;2.60;1.20;;;;;;;20.68;56.70;97677.94;8305543;28;20193;-68
2021/08/03 12:52:08;;;;;;;2.67;1.00;;;;;;;21.09;56.74;97680.38;8304463;28;20222;-67
2021/08/03 12:56:28;;;;;;;2.60;0.90;;;;;;;21.07;56.15;97671.78;8306149;28;20231;-67
2021/08/03 13:00:33;;;;;;;1.80;0.80;;;;;;;21.20;55.03;97666.22;8305407;28;20200;-65
2021/08/03 13:04:42;;;;;;;4.13;1.20;;;;;;;21.28;55.29;97675.09;8305122;28;20194;-66
2021/08/03 13:08:47;;;;;;;1.50;1.10;;;;;;;21.75;53.84;97670.78;8304797;28;20200;-65
2021/08/03 13:12:50;;;;;;;1.77;0.90;;;;;;;22.41;53.72;97667.13;8304855;28;20267;-67
2021/08/03 13:16:56;;;;;;;1.77;1.03;;;;;;;22.80;51.58;97672.06;8304470;28;20565;-66
2021/08/03 13:20:59;;;;;;;1.87;1.07;;;;;;;23.51;50.55;97686.94;8304537;28;20214;-65
2021/08/03 13:25:05;;;;;;;4.00;1.17;;;;;;;23.27;51.44;97684.19;8304487;28;20205;-67
2021/08/03 13:29:08;;;;;;;1.37;0.90;;;;;;;23.07;50.20;97681.72;8304954;28;20273;-67
2021/08/03 13:33:10;;;;;;;2.37;1.10;;;;;;;22.66;50.71;97676.09;8304172;28;20194;-67
2021/08/03 13:37:14;;;;;;;3.93;0.80;;;;;;;23.06;50.32;97685.34;8304043;28;20194;-66
2021/08/03 13:41:19;;;;;;;2.10;1.00;;;;;;;23.78;50.15;97691.25;8303946;28;20507;-66
2021/08/03 13:45:22;;;;;;;3.60;1.20;;;;;;;23.85;50.63;97691.44;8303221;28;20204;-67
2021/08/03 13:49:25;;;;;;;1.07;0.90;;;;;;;23.98;48.95;97697.13;8303706;28;20224;-69
2021/08/03 13:53:28;;;;;;;2.87;1.20;;;;;;;23.58;47.93;97695.09;8303555;28;20195;-66
2021/08/03 13:57:33;;;;;;;2.73;1.30;;;;;;;23.83;48.99;97696.06;8303567;28;20349;-66
2021/08/03 14:01:36;;;;;;;3.70;1.20;;;;;;;23.18;51.06;97688.56;8302939;28;20208;-66
2021/08/03 14:05:39;;;;;;;1.53;1.00;;;;;;;22.52;53.09;97672.13;8303229;28;20485;-66
2021/08/03 14:09:42;;;;;;;3.40;1.43;;;;;;;22.14;55.90;97666.16;8303019;28;20392;-66
2021/08/03 14:13:47;;;;;;;1.50;1.13;;;;;;;23.36;53.13;97654.16;8302940;28;20264;-67
2021/08/03 14:17:50;;;;;;;2.10;1.37;;;;;;;23.18;52.97;97651.59;8302753;28;20235;-65
2021/08/03 14:21:53;;;;;;;1.73;1.20;;;;;;;23.33;52.33;97649.19;8304897;28;20392;-66
2021/08/03 14:25:56;;;;;;;2.50;1.60;;;;;;;23.67;53.15;97651.03;8301347;28;20204;-65
2021/08/03 14:30:00;;;;;;;2.50;1.77;;;;;;;23.27;54.04;97647.19;8325259;28;20231;-66
2021/08/03 14:34:03;;;;;;;3.57;1.70;;;;;;;22.82;53.49;97641.88;8345469;28;20207;-66
2021/08/03 14:38:07;;;;;;;5.30;1.73;;;;;;;22.39;53.14;97622.41;8327517;28;20204;-66
2021/08/03 14:42:12;;;;;;;4.43;1.60;;;;;;;22.54;54.16;97622.72;8319132;28;20219;-68
2021/08/03 14:46:21;;;;;;;3.57;1.57;;;;;;;22.44;54.38;97621.94;8339813;28;20199;-67
2021/08/03 14:50:25;;;;;;;3.20;1.70;;;;;;;22.95;51.79;97616.91;8351575;28;20235;-68
2021/08/03 14:54:30;;;;;;;2.80;1.70;;;;;;;22.46;53.11;97609.44;8350941;28;20307;-68
2021/08/03 14:58:35;;;;;;;5.10;1.73;;;;;;;22.04;54.45;97610.00;8329074;28;20197;-68
2021/08/03 15:02:42;;;;;;;3.80;1.60;;;;;;;21.79;54.61;97604.44;8334056;28;20208;-68
2021/08/03 15:06:48;;;;;;;6.97;1.80;;;;;;;21.99;54.96;97599.06;8350517;28;20204;-70
2021/08/03 15:10:52;;;;;;;2.10;1.40;;;;;;;21.96;54.51;97594.09;8351197;28;20511;-68
2021/08/03 15:14:57;;;;;;;4.83;1.43;;;;;;;21.95;55.14;97598.56;8350794;28;20204;-69
2021/08/03 15:19:02;;;;;;;3.00;1.77;;;;;;;21.60;54.71;97591.38;8350616;28;20204;-68
2021/08/03 15:23:06;;;;;;;4.60;1.90;;;;;;;21.69;55.22;97581.78;8350819;28;20226;-68
2021/08/03 15:27:12;;;;;;;4.77;1.60;;;;;;;21.89;54.29;97585.94;8350275;28;20310;-69
2021/08/03 15:31:18;;;;;;;2.83;1.70;;;;;;;21.82;54.92;97590.16;8318785;28;20240;-68
2021/08/03 15:35:26;;;;;;;6.33;1.80;;;;;;;22.15;55.55;97587.88;8321606;28;20192;-67
2021/08/03 15:39:32;;;;;;;2.87;1.60;;;;;;;22.23;54.31;97588.75;8350306;28;20216;-67
2021/08/03 15:43:42;;;;;;;2.57;1.73;;;;;;;22.17;54.35;97589.34;8350330;28;20200;-68
2021/08/03 15:47:47;;;;;;;2.37;1.30;;;;;;;22.13;53.38;97576.63;8350264;28;20204;-68
2021/08/03 15:51:55;;;;;;;2.80;1.77;;;;;;;22.07;53.76;97570.16;8349988;28;20228;-67
2021/08/03 15:56:01;;;;;;;2.17;1.60;;;;;;;21.93;54.33;97573.28;8349866;28;20223;-67
2021/08/03 16:00:07;;;;;;;2.03;1.40;;;;;;;22.11;53.83;97563.59;8349769;28;20204;-65
2021/08/03 16:04:11;;;;;;;1.17;1.10;;;;;;;22.47;53.05;97557.50;8349624;28;20223;-67
2021/08/03 16:08:19;;;;;;;2.50;1.17;;;;;;;22.57;51.88;97564.34;8356729;28;20205;-67
2021/08/03 16:12:27;;;;;;;3.47;1.20;;;;;;;22.33;51.83;97558.88;8360485;28;20262;-66
2021/08/03 16:16:34;;;;;;;2.37;1.23;;;;;;;22.07;50.38;97551.69;8360344;28;20250;-67
2021/08/03 16:20:41;;;;;;;1.50;1.40;;;;;;;22.05;50.62;97551.84;8360365;28;20205;-66
2021/08/03 16:24:49;;;;;;;1.00;0.90;;;;;;;21.93;48.33;97547.75;8360293;28;20207;-66
2021/08/03 16:28:55;;;;;;;2.97;1.30;;;;;;;21.95;48.24;97548.47;8348609;28;20264;-65
2021/08/03 16:33:00;;;;;;;1.73;0.90;;;;;;;21.99;49.03;97535.78;8327018;28;20288;-66
2021/08/03 16:37:12;;;;;;;1.77;1.30;;;;;;;21.97;49.06;97548.28;8345181;28;20202;-67
2021/08/03 16:41:28;;;;;;;1.97;1.10;;;;;;;22.00;49.36;97538.28;8360054;28;20218;-67
2021/08/03 16:45:45;;;;;;;1.50;1.40;;;;;;;21.97;49.25;97530.69;8359911;28;20201;-67
2021/08/03 16:50:03;;;;;;;2.43;1.50;;;;;;;22.27;48.55;97531.28;8359627;28;20210;-67
2021/08/03 16:54:17;;;;;;;1.23;1.10;;;;;;;22.34;47.91;97527.06;8360013;28;20221;-67
2021/08/03 16:58:31;;;;;;;1.93;1.43;;;;;;;22.28;47.58;97525.03;8359630;28;20236;-67
2021/08/03 17:02:57;;;;;;;4.87;1.60;;;;;;;22.26;48.23;97519.09;8359726;28;20208;-67
2021/08/03 17:07:22;;;;;;;1.80;1.43;;;;;;;22.22;48.89;97523.00;8358979;28;20210;-67
2021/08/03 17:11:46;;;;;;;2.77;1.40;;;;;;;22.21;48.01;97524.78;8359636;28;20238;-68
2021/08/03 17:16:04;;;;;;;1.97;1.40;;;;;;;22.08;48.51;97513.78;8359295;28;20244;-68
2021/08/03 17:20:26;;;;;;;2.33;1.40;;;;;;;22.15;48.68;97514.03;8354644;28;20207;-66
2021/08/03 17:24:43;;;;;;;0.93;0.80;;;;;;;22.01;48.92;97512.75;8353724;28;20215;-66
2021/08/03 17:28:57;;;;;;;2.13;1.20;;;;;;;21.87;48.04;97524.63;8340134;28;20215;-65
2021/08/03 17:33:28;;;;;;;1.53;1.03;;;;;;;21.96;48.50;97525.56;8320569;28;20232;-66
2021/08/03 17:37:56;;;;;;;2.03;1.00;;;;;;;21.96;48.91;97536.91;8343504;28;20210;-67
2021/08/03 17:42:15;;;;;;;1.00;0.90;;;;;;;21.90;49.29;97534.06;8353643;28;20214;-67
2021/08/03 17:46:30;;;;;;;1.70;1.00;;;;;;;21.86;49.57;97541.44;8352784;28;20203;-67
2021/08/03 17:50:56;;;;;;;1.77;1.20;;;;;;;21.86;49.50;97546.72;8351625;28;20530;-67
2021/08/03 17:55:15;;;;;;;1.10;1.00;;;;;;;21.80;50.42;97549.94;8350531;28;20221;-67
2021/08/03 17:59:35;;;;;;;6.93;1.40;;;;;;;21.65;54.65;97552.25;8352994;28;20203;-67
2021/08/03 18:04:02;;;;;;;3.93;1.40;;;;;;;21.51;56.64;97553.56;8351814;28;20294;-66
2021/08/03 18:08:15;;;;;;;1.40;1.30;;;;;;;21.41;56.54;97560.66;8350184;28;20430;-67
2021/08/03 18:12:32;;;;;;;2.70;1.60;;;;;;;21.40;56.69;97614.31;8352591;28;20302;-66
2021/08/03 18:16:38;;;;;;;6.17;2.30;;;;;;;20.92;59.10;97610.84;8320036;28;20231;-64
2021/08/03 18:20:41;;;;;;;3.23;1.40;;;;;;;20.26;55.83;97588.75;8319799;28;20211;-65
2021/08/03 18:24:45;;;;;;;1.13;1.00;;;;;;;20.40;54.59;97597.19;8319647;28;20213;-64
2021/08/03 18:28:56;;;;;;;4.93;1.30;;;;;;;20.54;57.78;97598.56;8319353;28;20205;-63
2021/08/03 18:33:01;;;;;;;3.33;1.53;;;;;;;20.47;58.10;97595.66;8318499;28;20228;-64
2021/08/03 18:37:04;;;;;;;2.40;1.50;;;;;;;20.39;58.78;97592.88;8337403;28;20197;-65
2021/08/03 18:41:09;;;;;;;2.87;1.70;;;;;;;20.28;60.74;97593.88;8351901;28;20215;-66
2021/08/03 18:45:12;;;;;;;7.67;1.70;;;;;;;20.16;60.98;97600.22;8351755;28;20215;-66
2021/08/03 18:49:15;;;;;;;3.27;1.73;;;;;;;20.20;60.29;97598.97;8351900;28;20207;-66
2021/08/03 18:53:22;;;;;;;3.27;1.80;;;;;;;20.22;61.70;97594.41;8351539;28;20406;-64
2021/08/03 18:57:26;;;;;;;2.47;1.80;;;;;;;20.18;62.00;97596.50;8351244;28;20224;-64
2021/08/03 19:01:33;;;;;;;5.20;2.10;;;;;;;20.11;61.99;97600.63;8351419;28;20205;-64
2021/08/03 19:05:44;;;;;;;6.07;1.70;;;;;;;20.10;61.62;97610.34;8351563;28;20414;-64
2021/08/03 19:09:49;;;;;;;6.03;1.40;;;;;;;20.07;62.10;97626.38;8351125;28;20207;-64
2021/08/03 19:13:58;;;;;;;3.83;1.60;;;;;;;20.00;61.95;97632.28;8350957;28;20519;-64
2021/08/03 19:18:01;;;;;;;5.83;1.40;;;;;;;19.96;62.02;97636.16;8350906;28;20241;-64
2021/08/03 19:22:11;;;;;;;3.87;1.40;;;;;;;19.94;61.31;97632.84;8350755;28;20212;-64
2021/08/03 19:26:14;;;;;;;2.60;1.60;;;;;;;19.85;62.09;97634.47;8350802;28;20202;-64
2021/08/03 19:30:24;;;;;;;3.20;1.40;;;;;;;19.82;62.85;97640.84;8327442;28;20389;-64
2021/08/03 19:34:27;;;;;;;1.87;1.60;;;;;;;19.80;62.95;97644.53;8317711;28;20229;-64
2021/08/03 19:38:31;;;;;;;1.90;1.33;;;;;;;19.82;62.82;97639.97;8347476;28;20380;-63
2021/08/03 19:42:34;;;;;;;4.43;1.70;;;;;;;19.75;63.20;97658.09;8349368;28;20412;-65
2021/08/03 19:46:43;;;;;;;2.13;1.63;;;;;;;19.80;62.78;97652.44;8350138;28;20206;-65
2021/08/03 19:50:46;;;;;;;6.33;2.00;;;;;;;19.73;63.35;97660.03;8350124;28;20201;-64
2021/08/03 19:54:49;;;;;;;4.47;1.90;;;;;;;19.68;63.23;97654.28;8349735;28;20261;-64
2021/08/03 19:58:54;;;;;;;4.33;1.90;;;;;;;19.69;62.98;97661.22;8349794;28;20224;-65